createdAt,value
2018-03-11T00:00:37.800Z,9.87
2018-03-11T00:03:04.490Z,9.10
2018-03-11T00:05:31.254Z,9.80
2018-03-11T00:07:57.890Z,10.10
2018-03-11T00:10:24.526Z,8.33
2018-03-11T00:12:51.203Z,8.50
2018-03-11T00:15:17.917Z,8.80
2018-03-11T00:17:44.603Z,9.37
2018-03-11T00:20:11.237Z,9.53
2018-03-11T00:22:37.884Z,10.07
2018-03-11T00:25:04.582Z,10.03
2018-03-11T00:27:31.246Z,9.20
2018-03-11T00:29:58.123Z,9.20
2018-03-11T00:32:24.734Z,9.77
2018-03-11T00:34:51.523Z,9.23
2018-03-11T00:37:18.199Z,10.27
2018-03-11T00:39:44.846Z,9.40
2018-03-11T00:42:11.468Z,10.53
2018-03-11T00:44:38.195Z,9.57
2018-03-11T00:47:04.908Z,8.93
2018-03-11T00:49:31.825Z,9.23
2018-03-11T00:51:58.442Z,7.70
2018-03-11T00:54:25.069Z,9.27
2018-03-11T00:56:52.621Z,9.23
2018-03-11T00:59:19.283Z,7.80
2018-03-11T01:01:45.937Z,8.37
2018-03-11T01:04:12.622Z,9.23
2018-03-11T01:06:39.252Z,8.63
2018-03-11T01:09:06.666Z,6.97
2018-03-11T01:11:33.271Z,7.27
2018-03-11T01:13:59.903Z,7.73
2018-03-11T01:16:26.649Z,6.40
2018-03-11T01:18:53.342Z,6.53
2018-03-11T01:21:19.947Z,6.07
2018-03-11T01:23:46.605Z,6.43
2018-03-11T01:26:13.247Z,6.40
2018-03-11T01:28:40.009Z,6.83
2018-03-11T01:31:06.707Z,5.70
2018-03-11T01:33:33.345Z,5.20
2018-03-11T01:35:59.957Z,5.23
2018-03-11T01:38:26.605Z,6.07
2018-03-11T01:40:53.294Z,5.23
2018-03-11T01:43:19.944Z,5.40
2018-03-11T01:45:46.587Z,5.60
2018-03-11T01:48:13.223Z,6.17
2018-03-11T01:50:39.970Z,6.00
2018-03-11T01:53:08.328Z,5.60
2018-03-11T01:55:35.607Z,6.63
2018-03-11T01:58:02.242Z,6.10
2018-03-11T02:00:28.873Z,5.80
2018-03-11T02:02:55.500Z,5.60
2018-03-11T02:05:22.119Z,6.33
2018-03-11T02:07:48.728Z,5.50
2018-03-11T02:10:15.367Z,5.90
2018-03-11T02:12:42.001Z,5.10
2018-03-11T02:15:08.636Z,4.83
2018-03-11T02:17:35.299Z,4.83
2018-03-11T02:20:01.917Z,5.70
2018-03-11T02:22:28.548Z,5.03
2018-03-11T02:24:55.171Z,5.23
2018-03-11T02:27:21.823Z,4.83
2018-03-11T02:29:48.641Z,5.40
2018-03-11T02:32:15.243Z,5.50
2018-03-11T02:34:41.876Z,5.00
2018-03-11T02:37:08.552Z,5.17
2018-03-11T02:39:35.180Z,5.10
2018-03-11T02:42:01.882Z,5.30
2018-03-11T02:44:28.516Z,5.13
2018-03-11T02:46:55.168Z,4.90
2018-03-11T02:49:21.869Z,5.60
2018-03-11T02:51:48.488Z,4.80
2018-03-11T02:54:15.173Z,5.10
2018-03-11T02:56:41.838Z,5.10
2018-03-11T02:59:08.451Z,5.30
2018-03-11T03:01:35.095Z,5.60
2018-03-11T03:04:01.782Z,5.93
2018-03-11T03:06:28.455Z,6.23
2018-03-11T03:08:55.110Z,6.17
2018-03-11T03:11:21.771Z,6.10
2018-03-11T03:13:48.413Z,6.90
2018-03-11T03:16:15.282Z,6.90
2018-03-11T03:18:41.962Z,7.57
2018-03-11T03:21:08.626Z,7.60
2018-03-11T03:23:35.336Z,7.03
2018-03-11T03:26:01.978Z,7.60
2018-03-11T03:28:28.596Z,7.73
2018-03-11T03:30:55.321Z,8.80
2018-03-11T03:33:22.418Z,8.07
2018-03-11T03:35:49.050Z,9.10
2018-03-11T03:38:15.778Z,10.20
2018-03-11T03:40:42.505Z,9.10
2018-03-11T03:43:09.147Z,9.73
2018-03-11T03:45:35.787Z,9.63
2018-03-11T03:48:02.396Z,9.60
2018-03-11T03:50:29.028Z,8.90
2018-03-11T03:52:55.727Z,9.57
2018-03-11T03:55:22.361Z,10.03
2018-03-11T03:57:48.984Z,9.00
2018-03-11T04:00:15.634Z,9.70
2018-03-11T04:02:42.300Z,9.40
2018-03-11T04:05:09.260Z,10.53
2018-03-11T04:07:35.891Z,11.23
2018-03-11T04:10:02.567Z,11.87
2018-03-11T04:12:29.273Z,9.90
2018-03-11T04:14:56.125Z,9.90
2018-03-11T04:17:22.905Z,9.97
2018-03-11T04:19:49.515Z,10.60
2018-03-11T04:22:16.154Z,10.50
2018-03-11T04:24:42.797Z,11.77
2018-03-11T04:27:09.447Z,12.70
2018-03-11T04:29:36.105Z,12.50
2018-03-11T04:32:03.634Z,11.67
2018-03-11T04:34:30.301Z,10.70
2018-03-11T04:36:56.947Z,10.87
2018-03-11T04:39:24.388Z,10.90
2018-03-11T04:41:51.038Z,11.13
2018-03-11T04:44:17.752Z,10.70
2018-03-11T04:46:44.447Z,10.93
2018-03-11T04:49:11.133Z,12.70
2018-03-11T04:51:37.773Z,10.87
2018-03-11T04:54:04.417Z,11.10
2018-03-11T04:56:31.262Z,9.70
2018-03-11T04:58:57.876Z,9.50
2018-03-11T05:01:24.515Z,10.37
2018-03-11T05:03:51.157Z,11.00
2018-03-11T05:06:17.807Z,11.27
2018-03-11T05:08:44.429Z,9.80
2018-03-11T05:11:11.082Z,11.00
2018-03-11T05:13:37.711Z,11.27
2018-03-11T05:16:04.385Z,10.20
2018-03-11T05:18:31.191Z,11.63
2018-03-11T05:20:57.854Z,11.83
2018-03-11T05:23:24.548Z,12.70
2018-03-11T05:25:51.200Z,11.73
2018-03-11T05:28:17.860Z,12.23
2018-03-11T05:30:45.585Z,11.27
2018-03-11T05:33:12.294Z,11.80
2018-03-11T05:35:39.125Z,10.90
2018-03-11T05:38:05.770Z,11.23
2018-03-11T05:40:32.414Z,11.40
2018-03-11T05:42:59.091Z,10.50
2018-03-11T05:45:25.722Z,9.80
2018-03-11T05:47:52.362Z,10.13
2018-03-11T05:50:19.498Z,9.97
2018-03-11T05:52:46.128Z,9.70
2018-03-11T05:55:12.774Z,8.97
2018-03-11T05:57:39.528Z,9.67
2018-03-11T06:00:06.147Z,8.37
2018-03-11T06:02:32.824Z,9.40
2018-03-11T06:04:59.461Z,8.07
2018-03-11T06:07:26.089Z,8.73
2018-03-11T06:09:52.747Z,9.03
2018-03-11T06:12:19.865Z,8.07
2018-03-11T06:14:46.480Z,9.00
2018-03-11T06:17:13.122Z,7.97
2018-03-11T06:19:40.454Z,7.83
2018-03-11T06:22:07.108Z,8.00
2018-03-11T06:24:33.768Z,6.60
2018-03-11T06:27:00.404Z,6.87
2018-03-11T06:29:27.072Z,6.37
2018-03-11T06:31:54.179Z,6.30
2018-03-11T06:34:20.798Z,5.47
2018-03-11T06:36:47.409Z,6.87
2018-03-11T06:39:14.060Z,6.40
2018-03-11T06:41:40.740Z,6.50
2018-03-11T06:44:07.412Z,6.60
2018-03-11T06:46:34.041Z,7.20
2018-03-11T06:49:00.707Z,7.30
2018-03-11T06:51:27.327Z,6.93
2018-03-11T06:53:53.960Z,7.20
2018-03-11T06:56:20.685Z,7.10
2018-03-11T06:58:47.838Z,7.40
2018-03-11T07:01:14.482Z,7.00
2018-03-11T07:03:41.108Z,7.67
2018-03-11T07:06:07.764Z,7.20
2018-03-11T07:08:35.002Z,7.53
2018-03-11T07:11:01.642Z,7.40
2018-03-11T07:13:28.347Z,7.30
2018-03-11T07:15:54.966Z,5.83
2018-03-11T07:18:21.817Z,6.27
2018-03-11T07:20:48.442Z,7.70
2018-03-11T07:23:15.065Z,7.40
2018-03-11T07:25:41.729Z,8.23
2018-03-11T07:28:08.374Z,7.60
2018-03-11T07:30:35.066Z,8.30
2018-03-11T07:33:02.792Z,8.80
2018-03-11T07:35:29.791Z,9.90
2018-03-11T07:37:56.452Z,10.10
2018-03-11T07:40:24.004Z,11.13
2018-03-11T07:42:50.626Z,12.70
2018-03-11T07:45:17.366Z,12.80
2018-03-11T07:47:44.101Z,13.50
2018-03-11T07:50:10.779Z,15.70
2018-03-11T07:52:37.417Z,14.53
2018-03-11T07:55:04.055Z,15.20
2018-03-11T07:57:31.060Z,15.00
2018-03-11T07:59:57.720Z,15.33
2018-03-11T08:02:24.439Z,15.53
2018-03-11T08:04:51.470Z,14.17
2018-03-11T08:07:20.006Z,14.80
2018-03-11T08:09:46.725Z,13.70
2018-03-11T08:12:13.380Z,14.93
2018-03-11T08:14:40.053Z,14.73
2018-03-11T08:17:06.768Z,14.30
2018-03-11T08:19:33.378Z,15.43
2018-03-11T08:22:00.001Z,14.00
2018-03-11T08:24:26.616Z,13.73
2018-03-11T08:26:53.363Z,15.57
2018-03-11T08:29:20.032Z,15.73
2018-03-11T08:31:46.687Z,16.90
2018-03-11T08:34:13.786Z,15.33
2018-03-11T08:36:40.464Z,15.23
2018-03-11T08:39:07.077Z,14.83
2018-03-11T08:41:33.740Z,15.33
2018-03-11T08:44:00.379Z,15.03
2018-03-11T08:46:27.037Z,15.20
2018-03-11T08:48:53.683Z,15.50
2018-03-11T08:51:20.306Z,15.63
2018-03-11T08:53:46.927Z,16.40
2018-03-11T08:56:13.568Z,15.30
2018-03-11T08:58:40.187Z,16.90
2018-03-11T09:01:06.888Z,15.97
2018-03-11T09:03:33.450Z,17.10
2018-03-11T09:06:00.162Z,16.27
2018-03-11T09:08:26.814Z,15.87
2018-03-11T09:10:53.654Z,15.73
2018-03-11T09:13:20.457Z,15.40
2018-03-11T09:15:47.265Z,16.53
2018-03-11T09:18:13.876Z,17.33
2018-03-11T09:20:40.540Z,16.77
2018-03-11T09:23:07.202Z,16.00
2018-03-11T09:25:33.838Z,17.33
2018-03-11T09:28:00.509Z,17.40
2018-03-11T09:30:27.187Z,17.33
2018-03-11T09:33:02.382Z,17.90
2018-03-11T09:35:30.381Z,16.97
2018-03-11T09:37:57.080Z,16.73
2018-03-11T09:40:23.806Z,17.20
2018-03-11T09:42:50.474Z,16.17
2018-03-11T09:45:17.147Z,17.33
2018-03-11T09:47:43.808Z,15.73
2018-03-11T09:50:10.471Z,15.30
2018-03-11T09:52:37.128Z,17.00
2018-03-11T09:55:13.171Z,15.83
2018-03-11T09:57:40.290Z,18.00
2018-03-11T10:00:07.073Z,15.87
2018-03-11T10:02:33.741Z,14.80
2018-03-11T10:05:00.418Z,15.47
2018-03-11T10:07:27.050Z,14.73
2018-03-11T10:09:53.725Z,16.03
2018-03-11T10:12:20.432Z,15.57
2018-03-11T10:14:47.095Z,15.00
2018-03-11T10:20:13.582Z,15.77
2018-03-11T10:22:40.268Z,14.20
2018-03-11T10:25:06.983Z,14.53
2018-03-11T10:27:33.682Z,15.13
2018-03-11T10:30:00.332Z,14.00
2018-03-11T10:32:26.990Z,14.57
2018-03-11T10:34:53.710Z,13.70
2018-03-11T10:37:20.374Z,14.60
2018-03-11T10:39:47.075Z,14.97
2018-03-11T10:42:13.826Z,13.70
2018-03-11T10:44:40.572Z,13.93
2018-03-11T10:47:07.261Z,13.53
2018-03-11T10:49:34.989Z,14.70
2018-03-11T10:52:01.628Z,15.20
2018-03-11T10:54:28.732Z,14.63
2018-03-11T10:56:56.542Z,16.20
2018-03-11T10:59:23.388Z,14.70
2018-03-11T11:01:55.860Z,15.87
2018-03-11T11:04:22.519Z,15.37
2018-03-11T11:06:49.307Z,15.90
2018-03-11T11:09:16.337Z,15.33
2018-03-11T11:11:43.110Z,15.70
2018-03-11T11:14:09.923Z,14.00
2018-03-11T11:16:36.862Z,14.10
2018-03-11T11:19:03.992Z,13.93
2018-03-11T11:21:30.717Z,14.37
2018-03-11T11:23:57.436Z,13.07
2018-03-11T11:26:24.122Z,13.33
2018-03-11T11:28:50.768Z,13.83
2018-03-11T11:31:17.490Z,12.47
2018-03-11T11:33:44.131Z,12.73
2018-03-11T11:36:10.886Z,13.17
2018-03-11T11:38:37.628Z,13.40
2018-03-11T11:41:04.349Z,12.83
2018-03-11T11:43:31.080Z,13.23
2018-03-11T11:45:58.378Z,12.53
2018-03-11T11:48:25.069Z,12.03
2018-03-11T11:50:51.749Z,11.70
2018-03-11T11:53:18.421Z,11.63
2018-03-11T11:55:45.174Z,12.57
2018-03-11T11:58:11.829Z,12.20
2018-03-11T12:00:38.659Z,12.37
2018-03-11T12:03:05.442Z,12.27
2018-03-11T12:05:32.097Z,10.90
2018-03-11T12:07:58.846Z,12.17
2018-03-11T12:10:25.672Z,12.13
2018-03-11T12:12:52.387Z,10.90
2018-03-11T12:15:19.713Z,11.63
2018-03-11T12:17:46.392Z,12.30
2018-03-11T12:20:13.085Z,11.33
2018-03-11T12:22:40.016Z,11.30
2018-03-11T12:25:06.633Z,11.50
2018-03-11T12:27:33.402Z,10.50
2018-03-11T12:30:01.307Z,10.67
2018-03-11T12:32:28.104Z,9.97
2018-03-11T12:34:54.856Z,10.70
2018-03-11T12:37:21.577Z,10.03
2018-03-11T12:39:48.209Z,10.50
2018-03-11T12:42:14.926Z,10.97
2018-03-11T12:44:41.664Z,11.00
2018-03-11T12:47:08.395Z,10.77
2018-03-11T12:49:35.065Z,10.93
2018-03-11T12:52:01.711Z,10.00
2018-03-11T12:54:28.371Z,10.60
2018-03-11T12:56:55.151Z,11.00
2018-03-11T12:59:21.922Z,10.57
2018-03-11T13:01:48.606Z,10.87
2018-03-11T13:04:15.437Z,9.90
2018-03-11T13:06:42.150Z,10.60
2018-03-11T13:09:08.805Z,9.17
2018-03-11T13:11:35.433Z,8.87
2018-03-11T13:14:02.167Z,8.77
2018-03-11T13:16:28.877Z,9.67
2018-03-11T13:18:55.522Z,9.40
2018-03-11T13:21:22.262Z,9.60
2018-03-11T13:23:48.884Z,8.73
2018-03-11T13:26:15.730Z,8.17
2018-03-11T13:28:46.325Z,10.03
2018-03-11T13:31:13.030Z,9.07
2018-03-11T13:33:46.321Z,8.53
2018-03-11T13:36:13.117Z,7.97
2018-03-11T13:38:45.709Z,8.20
2018-03-11T13:41:12.336Z,7.43
2018-03-11T13:43:39.047Z,7.67
2018-03-11T13:46:12.148Z,7.57
2018-03-11T13:48:38.800Z,6.20
2018-03-11T13:51:05.432Z,6.13
2018-03-11T13:53:37.994Z,6.33
2018-03-11T13:56:04.713Z,4.10
2018-03-11T13:58:37.426Z,5.10
2018-03-11T14:01:04.080Z,6.00
2018-03-11T14:03:30.954Z,6.43
2018-03-11T14:05:57.612Z,5.90
2018-03-11T14:08:24.403Z,5.93
2018-03-11T14:10:51.118Z,5.87
2018-03-11T14:13:17.813Z,6.60
2018-03-11T14:15:44.594Z,6.17
2018-03-11T14:18:11.278Z,5.77
2018-03-11T14:20:38.081Z,6.40
2018-03-11T14:23:04.742Z,6.30
2018-03-11T14:25:31.485Z,5.40
2018-03-11T14:27:58.175Z,4.90
2018-03-11T14:30:24.846Z,4.53
2018-03-11T14:32:51.749Z,4.23
2018-03-11T14:35:18.416Z,3.93
2018-03-11T14:37:45.066Z,4.67
2018-03-11T14:40:11.955Z,5.60
2018-03-11T14:42:38.691Z,5.80
2018-03-11T14:45:05.336Z,6.03
2018-03-11T14:47:32.018Z,5.13
2018-03-11T14:49:58.744Z,6.37
2018-03-11T14:52:25.798Z,6.43
2018-03-11T14:54:52.497Z,6.60
2018-03-11T14:57:19.286Z,7.60
2018-03-11T14:59:46.769Z,7.83
2018-03-11T15:02:13.482Z,8.43
2018-03-11T15:04:40.289Z,8.77
2018-03-11T15:07:07.046Z,9.10
2018-03-11T15:09:33.742Z,9.77
2018-03-11T15:12:00.399Z,9.10
2018-03-11T15:14:27.631Z,9.63
2018-03-11T15:16:55.905Z,9.47
2018-03-11T15:19:22.604Z,10.00
2018-03-11T15:21:49.254Z,10.20
2018-03-11T15:24:16.292Z,10.00
2018-03-11T15:26:43.040Z,10.50
2018-03-11T15:29:09.739Z,10.20
2018-03-11T15:31:36.543Z,10.63
2018-03-11T15:34:03.260Z,11.57
2018-03-11T15:36:30.110Z,11.50
2018-03-11T15:38:56.774Z,10.37
2018-03-11T15:41:24.323Z,9.93
2018-03-11T15:43:51.103Z,9.60
2018-03-11T15:46:17.876Z,8.90
2018-03-11T15:48:44.601Z,9.00
2018-03-11T15:51:11.360Z,8.60
2018-03-11T15:53:38.149Z,8.23
2018-03-11T15:56:04.785Z,8.90
2018-03-11T15:58:31.530Z,9.10
2018-03-11T16:00:58.838Z,8.07
2018-03-11T16:03:25.598Z,7.97
2018-03-11T16:05:52.256Z,8.20
2018-03-11T16:08:18.898Z,8.87
2018-03-11T16:10:45.511Z,7.90
2018-03-11T16:13:12.184Z,6.70
2018-03-11T16:15:39.513Z,7.43
2018-03-11T16:18:06.522Z,7.80
2018-03-11T16:20:33.173Z,8.27
2018-03-11T16:22:59.943Z,8.90
2018-03-11T16:25:26.672Z,8.30
2018-03-11T16:27:53.439Z,8.97
2018-03-11T16:30:20.133Z,9.70
2018-03-11T16:32:46.814Z,8.90
2018-03-11T16:35:13.450Z,9.47
2018-03-11T16:37:40.202Z,8.93
2018-03-11T16:40:07.809Z,8.20
2018-03-11T16:42:34.379Z,8.80
2018-03-11T16:45:01.039Z,8.70
2018-03-11T16:47:27.747Z,10.57
2018-03-11T16:49:54.455Z,8.43
2018-03-11T16:52:21.463Z,8.60
2018-03-11T16:54:48.156Z,8.30
2018-03-11T16:57:14.889Z,8.40
2018-03-11T16:59:41.552Z,9.40
2018-03-11T17:02:08.399Z,8.13
2018-03-11T17:04:35.050Z,9.47
2018-03-11T17:07:01.870Z,8.97
2018-03-11T17:09:28.654Z,9.50
2018-03-11T17:11:55.480Z,12.63
2018-03-11T17:14:22.281Z,10.53
2018-03-11T17:16:48.969Z,10.27
2018-03-11T17:19:16.017Z,8.73
2018-03-11T17:21:42.775Z,9.70
2018-03-11T17:24:09.509Z,9.43
2018-03-11T17:26:36.222Z,10.10
2018-03-11T17:29:02.864Z,9.60
2018-03-11T17:31:29.744Z,8.47
2018-03-11T17:33:56.401Z,9.43
2018-03-11T17:36:23.229Z,10.00
2018-03-11T17:38:50.156Z,10.10
2018-03-11T17:41:16.778Z,10.13
2018-03-11T17:43:43.485Z,10.77
2018-03-11T17:46:10.160Z,11.10
2018-03-11T17:48:36.895Z,10.80
2018-03-11T17:51:03.632Z,9.83
2018-03-11T17:53:30.506Z,11.20
2018-03-11T17:55:57.318Z,11.03
2018-03-11T17:58:24.254Z,10.80
2018-03-11T18:00:50.963Z,11.80
2018-03-11T18:03:17.912Z,10.47
2018-03-11T18:05:45.247Z,10.77
2018-03-11T18:08:11.915Z,10.53
2018-03-11T18:10:38.558Z,10.97
2018-03-11T18:13:05.341Z,10.77
2018-03-11T18:15:32.009Z,10.80
2018-03-11T18:17:59.287Z,11.30
2018-03-11T18:20:26.044Z,10.80
2018-03-11T18:22:52.740Z,11.80
2018-03-11T18:25:19.499Z,12.53
2018-03-11T18:27:46.253Z,11.57
2018-03-11T18:30:12.914Z,13.73
2018-03-11T18:32:40.125Z,13.43
2018-03-11T18:35:06.798Z,14.23
2018-03-11T18:37:33.528Z,14.10
2018-03-11T18:40:00.438Z,12.53
2018-03-11T18:42:27.269Z,11.00
2018-03-11T18:44:54.722Z,11.67
2018-03-11T18:47:21.435Z,12.00
2018-03-11T18:49:48.175Z,12.43
2018-03-11T18:52:15.012Z,12.73
2018-03-11T18:54:41.861Z,11.60
2018-03-11T18:57:08.660Z,11.43
2018-03-11T18:59:35.445Z,12.60
2018-03-11T19:02:02.328Z,11.47
2018-03-11T19:04:29.143Z,11.83
2018-03-11T19:06:55.803Z,10.30
2018-03-11T19:09:22.534Z,11.17
2018-03-11T19:11:49.427Z,11.17
2018-03-11T19:14:16.120Z,12.27
2018-03-11T19:16:42.808Z,10.83
2018-03-11T19:19:09.563Z,10.90
2018-03-11T19:21:36.254Z,10.50
2018-03-11T19:24:03.011Z,10.97
2018-03-11T19:26:29.688Z,11.30
2018-03-11T19:28:56.398Z,10.57
2018-03-11T19:31:23.058Z,10.10
2018-03-11T19:33:49.880Z,11.50
2018-03-11T19:36:16.753Z,11.83
2018-03-11T19:38:43.505Z,11.27
2018-03-11T19:41:10.329Z,12.00
2018-03-11T19:43:36.972Z,12.30
2018-03-11T19:46:03.652Z,12.80
2018-03-11T19:48:30.425Z,12.00
2018-03-11T19:50:57.180Z,10.40
2018-03-11T19:53:24.083Z,9.53
2018-03-11T19:55:50.892Z,10.93
2018-03-11T19:58:17.712Z,9.40
2018-03-11T20:00:44.712Z,9.40
2018-03-11T20:03:11.436Z,9.70
2018-03-11T20:05:38.270Z,10.53
2018-03-11T20:08:05.236Z,11.00
2018-03-11T20:10:32.007Z,11.20
2018-03-11T20:12:58.719Z,10.43
2018-03-11T20:15:25.374Z,10.00
2018-03-11T20:17:52.683Z,11.10
2018-03-11T20:20:20.172Z,10.17
2018-03-11T20:22:46.845Z,9.73
2018-03-11T20:25:13.762Z,9.53
2018-03-11T20:27:40.389Z,9.80
2018-03-11T20:30:07.048Z,8.97
2018-03-11T20:32:33.781Z,10.13
2018-03-11T20:35:00.516Z,10.83
2018-03-11T20:37:27.661Z,10.70
2018-03-11T20:39:54.413Z,10.10
2018-03-11T20:42:21.154Z,9.80
2018-03-11T20:44:47.789Z,10.30
2018-03-11T20:47:14.467Z,9.80
2018-03-11T20:49:41.465Z,11.07
2018-03-11T20:52:08.084Z,10.20
2018-03-11T20:54:34.732Z,10.47
2018-03-11T20:57:01.389Z,9.60
2018-03-11T20:59:28.040Z,9.83
2018-03-11T21:01:54.671Z,10.07
2018-03-11T21:04:21.411Z,10.10
2018-03-11T21:06:48.058Z,9.67
2018-03-11T21:09:14.697Z,8.80
2018-03-11T21:11:41.415Z,9.27
2018-03-11T21:14:08.106Z,9.10
2018-03-11T21:16:34.820Z,9.67
2018-03-11T21:19:01.476Z,9.57
2018-03-11T21:21:29.056Z,9.00
2018-03-11T21:23:55.864Z,9.00
2018-03-11T21:26:22.675Z,9.00
2018-03-11T21:28:49.315Z,10.00
2018-03-11T21:31:15.979Z,9.30
2018-03-11T21:33:42.609Z,8.23
2018-03-11T21:36:09.239Z,7.40
2018-03-11T21:38:35.887Z,7.87
2018-03-11T21:41:02.606Z,8.10
2018-03-11T21:43:29.256Z,7.17
2018-03-11T21:45:55.982Z,7.57
2018-03-11T21:48:22.958Z,8.43
2018-03-11T21:50:49.755Z,7.90
2018-03-11T21:53:16.399Z,8.43
2018-03-11T21:55:45.769Z,7.80
2018-03-11T21:58:12.577Z,8.23
2018-03-11T22:00:39.309Z,8.93
2018-03-11T22:03:05.954Z,8.60
2018-03-11T22:05:32.606Z,8.73
2018-03-11T22:07:59.237Z,8.93
2018-03-11T22:10:26.204Z,9.47
2018-03-11T22:12:53.109Z,8.93
2018-03-11T22:15:19.787Z,9.60
2018-03-11T22:17:46.469Z,8.57
2018-03-11T22:20:13.133Z,8.90
2018-03-11T22:22:39.745Z,8.87
2018-03-11T22:25:06.389Z,9.70
2018-03-11T22:27:33.014Z,9.53
2018-03-11T22:29:59.654Z,9.83
2018-03-11T22:32:26.521Z,10.33
2018-03-11T22:34:53.216Z,9.80
2018-03-11T22:37:19.844Z,11.23
2018-03-11T22:39:46.516Z,11.40
2018-03-11T22:42:13.148Z,11.47
2018-03-11T22:44:39.816Z,12.20
2018-03-11T22:47:06.447Z,13.00
2018-03-11T22:49:33.090Z,12.83
2018-03-11T22:51:59.738Z,15.27
2018-03-11T22:54:26.344Z,14.47
2018-03-11T22:56:52.996Z,14.13
2018-03-11T22:59:19.659Z,15.10
2018-03-11T23:01:46.289Z,15.37
2018-03-11T23:04:12.929Z,15.40
2018-03-11T23:06:39.600Z,15.50
2018-03-11T23:09:06.233Z,16.57
2018-03-11T23:11:32.889Z,15.87
2018-03-11T23:13:59.528Z,13.77
2018-03-11T23:16:27.016Z,13.90
2018-03-11T23:18:59.463Z,14.17
2018-03-11T23:21:26.176Z,14.07
2018-03-11T23:23:52.842Z,14.80
2018-03-11T23:26:19.462Z,15.80
2018-03-11T23:28:46.280Z,15.80
2018-03-11T23:31:12.896Z,14.70
2018-03-11T23:33:39.527Z,15.50
2018-03-11T23:36:06.377Z,15.60
2018-03-11T23:38:33.008Z,15.53
2018-03-11T23:40:59.678Z,15.20
2018-03-11T23:43:26.583Z,14.87
2018-03-11T23:45:53.219Z,13.10
2018-03-11T23:48:19.886Z,14.40
2018-03-11T23:50:46.526Z,14.60
2018-03-11T23:53:13.162Z,14.37
2018-03-11T23:55:39.791Z,14.47
2018-03-11T23:58:06.422Z,15.57
